Time;durP1;ratioP1;P1;durP2;ratioP2;P2;SDS_P1;SDS_P2;PMS_P1;PMS_P2;Temp;Humidity;BMP_temperature;BMP_pressure;BME280_temperature;BME280_humidity;BME280_pressure;Samples;Min_cycle;Max_cycle;Signal;HPM_P1;HPM_P2
2022/06/13 00:01:01;;;;;;;12.38;4.53;;;14.00;99.90;;;;;;5028164;28;20359;-75
2022/06/13 00:03:27;;;;;;;13.15;4.47;;;14.00;99.90;;;;;;5014263;28;20061;-74
2022/06/13 00:05:52;;;;;;;12.55;4.25;;;14.00;99.90;;;;;;5013306;28;20053;-74
2022/06/13 00:08:18;;;;;;;13.73;4.07;;;14.00;99.90;;;;;;5034494;28;20513;-74
2022/06/13 00:10:43;;;;;;;11.48;4.40;;;14.00;99.90;;;;;;5050529;28;20124;-75
2022/06/13 00:13:09;;;;;;;11.32;4.13;;;14.00;99.90;;;;;;5032499;28;20055;-75
2022/06/13 00:15:35;;;;;;;12.15;4.72;;;14.00;99.90;;;;;;5034437;28;20037;-74
2022/06/13 00:18:00;;;;;;;10.45;4.20;;;13.90;99.90;;;;;;5034755;28;20103;-74
2022/06/13 00:20:26;;;;;;;11.40;4.35;;;13.90;99.90;;;;;;5033948;28;20076;-75
2022/06/13 00:22:52;;;;;;;11.80;4.30;;;13.80;99.90;;;;;;5017015;28;20036;-75
2022/06/13 00:25:17;;;;;;;10.80;3.88;;;13.80;99.90;;;;;;5017887;28;20091;-75
2022/06/13 00:27:43;;;;;;;11.95;4.25;;;13.80;99.90;;;;;;5034267;28;20037;-75
2022/06/13 00:30:10;;;;;;;14.38;4.18;;;13.80;99.90;;;;;;5025564;28;20048;-75
2022/06/13 00:32:36;;;;;;;10.60;4.32;;;13.80;99.90;;;;;;5023908;28;20125;-74
2022/06/13 00:35:03;;;;;;;10.40;4.40;;;13.80;99.90;;;;;;5017607;28;20037;-74
2022/06/13 00:37:29;;;;;;;11.55;3.78;;;13.90;99.90;;;;;;5033926;28;20417;-74
2022/06/13 00:39:54;;;;;;;10.60;4.50;;;13.90;99.90;;;;;;5033810;28;20518;-75
2022/06/13 00:42:23;;;;;;;11.43;4.20;;;13.90;99.90;;;;;;5032709;28;20046;-74
2022/06/13 00:45:14;;;;;;;13.10;4.47;;;13.90;99.90;;;;;;5034204;28;20375;-74
2022/06/13 00:47:44;;;;;;;11.38;4.75;;;13.90;99.90;;;;;;5012662;28;20060;-74
2022/06/13 00:50:16;;;;;;;12.27;4.85;;;13.90;99.90;;;;;;5017357;28;20041;-73
2022/06/13 00:52:45;;;;;;;;;;;13.90;99.90;;;;;;5032569;28;20042;-73
2022/06/13 00:55:14;;;;;;;11.55;4.15;;;13.80;99.90;;;;;;5033747;28;20361;-74
2022/06/13 00:57:40;;;;;;;11.13;4.30;;;13.80;99.90;;;;;;5033918;28;20155;-74
2022/06/13 01:00:11;;;;;;;12.98;4.90;;;13.80;99.90;;;;;;5033218;28;21392;-74
2022/06/13 01:02:40;;;;;;;10.13;4.18;;;13.80;99.90;;;;;;5031905;28;20038;-75
2022/06/13 01:05:06;;;;;;;14.68;4.78;;;13.80;99.90;;;;;;5030449;28;20038;-75
2022/06/13 01:07:32;;;;;;;12.30;4.20;;;13.80;99.90;;;;;;5030587;28;20104;-74
2022/06/13 01:12:43;;;;;;;11.50;4.50;;;13.70;99.90;;;;;;5048003;28;20413;-75
2022/06/13 01:15:21;;;;;;;11.98;4.30;;;13.70;99.90;;;;;;5033368;28;20038;-75
2022/06/13 01:18:10;;;;;;;12.48;4.07;;;13.70;99.90;;;;;;5033391;28;20076;-76
2022/06/13 01:21:01;;;;;;;12.07;3.88;;;13.70;99.90;;;;;;5032693;28;20033;-77
2022/06/13 01:23:45;;;;;;;12.18;4.25;;;13.70;99.90;;;;;;5032487;28;20513;-75
2022/06/13 01:26:10;;;;;;;11.27;4.13;;;13.60;99.90;;;;;;5015975;28;20052;-76
2022/06/13 01:28:52;;;;;;;10.85;4.63;;;13.70;99.90;;;;;;5033184;28;20561;-76
2022/06/13 01:31:36;;;;;;;10.88;4.15;;;13.70;99.90;;;;;;5033064;28;20104;-77
2022/06/13 01:34:27;;;;;;;9.82;4.20;;;13.70;99.90;;;;;;5013265;28;20042;-77
2022/06/13 01:37:11;;;;;;;10.13;4.05;;;13.60;99.90;;;;;;5029840;28;20041;-77
2022/06/13 01:39:55;;;;;;;10.13;4.38;;;13.50;99.90;;;;;;5029534;28;20490;-76
2022/06/13 01:42:59;;;;;;;11.00;3.53;;;13.50;99.90;;;;;;5027306;28;20135;-76
2022/06/13 01:45:42;;;;;;;8.98;3.90;;;13.50;99.90;;;;;;5013163;28;20041;-75
2022/06/13 01:48:36;;;;;;;14.75;4.20;;;13.40;99.90;;;;;;5013247;28;20093;-75
2022/06/13 01:51:15;;;;;;;9.85;4.30;;;13.40;99.90;;;;;;5005142;28;20052;-75
2022/06/13 01:54:10;;;;;;;10.88;3.97;;;13.30;99.90;;;;;;5031554;28;20046;-75
2022/06/13 01:56:44;;;;;;;10.52;3.80;;;13.30;99.90;;;;;;5032487;28;20486;-75
2022/06/13 01:59:17;;;;;;;10.00;3.90;;;13.40;99.90;;;;;;5032658;28;20494;-75
2022/06/13 02:01:49;;;;;;;11.73;4.53;;;13.40;99.90;;;;;;5030973;28;20040;-75
2022/06/13 02:04:17;;;;;;;;;;;13.50;99.90;;;;;;5032155;28;20037;-74
2022/06/13 02:06:44;;;;;;;;;;;13.50;99.90;;;;;;5049477;28;20365;-75
2022/06/13 02:09:13;;;;;;;;;;;13.50;99.90;;;;;;5049688;28;20356;-75
2022/06/13 02:11:47;;;;;;;;;;;13.50;99.90;;;;;;5048869;28;19917;-74
2022/06/13 02:14:25;;;;;;;;;;;13.50;99.90;;;;;;5031998;28;19975;-75
2022/06/13 02:17:11;;;;;;;;;;;13.50;99.90;;;;;;5016284;28;19917;-75
2022/06/13 02:19:36;;;;;;;;;;;13.60;99.90;;;;;;5032669;28;19970;-75
2022/06/13 02:22:06;;;;;;;;;;;13.40;99.90;;;;;;5028484;28;19917;-75
2022/06/13 02:24:36;;;;;;;;;;;13.40;99.90;;;;;;5048131;28;19917;-76
2022/06/13 02:27:02;;;;;;;;;;;13.40;99.90;;;;;;5031738;28;19963;-76
2022/06/13 02:29:34;;;;;;;;;;;13.30;99.90;;;;;;5032451;28;20447;-75
2022/06/13 02:32:04;;;;;;;;;;;13.30;99.90;;;;;;5014854;28;20304;-76
2022/06/13 02:34:33;;;;;;;;;;;13.30;99.90;;;;;;5015322;28;19924;-76
2022/06/13 02:37:02;;;;;;;;;;;13.30;99.90;;;;;;5032741;28;20282;-76
2022/06/13 02:39:31;;;;;;;;;;;13.30;99.90;;;;;;5015858;28;19928;-76
2022/06/13 02:42:01;;;;;;;;;;;13.20;99.90;;;;;;5031933;28;20293;-76
2022/06/13 02:44:30;;;;;;;;;;;13.20;99.90;;;;;;5015170;28;19979;-76
2022/06/13 02:47:16;;;;;;;;;;;13.30;99.90;;;;;;5032314;28;19917;-76
2022/06/13 02:49:50;;;;;;;;;;;13.30;99.90;;;;;;5032140;28;19917;-76
2022/06/13 02:52:21;;;;;;;;;;;13.40;99.90;;;;;;5031748;28;19928;-76
2022/06/13 02:54:49;;;;;;;;;;;13.40;99.90;;;;;;5031488;28;19927;-75
2022/06/13 02:57:34;;;;;;;;;;;13.40;99.90;;;;;;5048804;28;20443;-75
2022/06/13 02:59:59;;;;;;;;;;;13.50;99.90;;;;;;5032270;28;19924;-75
2022/06/13 03:02:45;;;;;;;;;;;13.50;99.90;;;;;;5046388;28;19917;-75
2022/06/13 03:05:29;;;;;;;;;;;13.50;99.90;;;;;;5031491;28;19926;-75
2022/06/13 03:07:59;;;;;;;;;;;13.50;99.90;;;;;;5028224;28;19978;-75
2022/06/13 03:10:31;;;;;;;;;;;13.50;99.90;;;;;;5028590;28;20250;-75
2022/06/13 03:13:00;;;;;;;;;;;13.40;99.90;;;;;;5029316;28;20377;-75
2022/06/13 03:15:33;;;;;;;;;;;13.40;99.90;;;;;;5037428;28;19924;-75
2022/06/13 03:18:01;;;;;;;;;;;13.40;99.90;;;;;;5029450;28;19916;-75
2022/06/13 03:20:44;;;;;;;;;;;13.50;99.90;;;;;;5030661;28;19921;-75
2022/06/13 03:23:36;;;;;;;;;;;13.50;99.90;;;;;;5046695;28;19970;-75
2022/06/13 03:26:14;;;;;;;;;;;13.50;99.90;;;;;;5028020;28;20431;-75
2022/06/13 03:28:43;;;;;;;;;;;13.50;99.90;;;;;;5030306;28;19917;-75
2022/06/13 03:31:17;;;;;;;;;;;13.40;99.90;;;;;;5014580;28;20404;-75
2022/06/13 03:33:44;;;;;;;;;;;13.40;99.90;;;;;;5031068;28;20398;-75
2022/06/13 03:36:12;;;;;;;;;;;13.40;99.90;;;;;;5018356;28;19924;-75
2022/06/13 03:38:41;;;;;;;;;;;13.40;99.90;;;;;;5048817;28;19924;-75
2022/06/13 03:41:10;;;;;;;;;;;13.30;99.90;;;;;;5045195;28;20039;-75
2022/06/13 03:43:52;;;;;;;;;;;13.30;99.90;;;;;;5033966;28;20349;-75
2022/06/13 03:46:21;;;;;;;;;;;13.40;99.90;;;;;;5034800;28;19924;-75
2022/06/13 03:48:54;;;;;;;;;;;13.40;99.90;;;;;;5033568;28;20465;-75
2022/06/13 03:51:46;;;;;;;;;;;13.40;99.90;;;;;;5033559;28;19936;-75
2022/06/13 03:54:20;;;;;;;;;;;13.50;99.90;;;;;;5017145;28;20285;-75
2022/06/13 03:57:03;;;;;;;;;;;13.50;99.90;;;;;;5050029;28;19952;-75
2022/06/13 03:59:37;;;;;;;;;;;13.60;99.90;;;;;;5032039;28;20277;-75
2022/06/13 04:02:11;;;;;;;;;;;13.50;99.90;;;;;;5046435;28;20020;-75
2022/06/13 04:04:41;;;;;;;;;;;13.50;99.90;;;;;;5034525;28;19940;-75
2022/06/13 04:07:06;;;;;;;;;;;13.60;99.90;;;;;;5048870;28;20081;-75
2022/06/13 04:09:33;;;;;;;;;;;13.60;99.90;;;;;;5049694;28;19967;-75
2022/06/13 04:12:14;;;;;;;;;;;13.60;99.90;;;;;;5050096;28;19970;-75
2022/06/13 04:14:57;;;;;;;;;;;13.50;99.90;;;;;;5033983;28;19917;-75
2022/06/13 04:17:29;;;;;;;;;;;13.60;99.90;;;;;;5034965;28;19967;-75
2022/06/13 04:19:55;;;;;;;;;;;13.50;99.90;;;;;;5033506;28;19917;-75
2022/06/13 04:22:20;;;;;;;;;;;13.50;99.90;;;;;;5031979;28;19923;-75
2022/06/13 04:24:46;;;;;;;;;;;13.50;99.90;;;;;;5034360;28;19921;-75
2022/06/13 04:27:15;;;;;;;;;;;13.60;99.90;;;;;;5048457;28;20035;-75
2022/06/13 04:29:40;;;;;;;;;;;13.50;99.90;;;;;;5017388;28;20251;-75
2022/06/13 04:32:09;;;;;;;;;;;13.60;99.90;;;;;;5032934;28;19928;-75
2022/06/13 04:34:40;;;;;;;;;;;13.50;99.90;;;;;;5031260;28;20005;-75
2022/06/13 04:37:06;;;;;;;;;;;13.50;99.90;;;;;;5031137;28;19917;-75
2022/06/13 04:39:33;;;;;;;;;;;13.50;99.90;;;;;;5048393;28;19947;-75
2022/06/13 04:42:00;;;;;;;;;;;13.60;99.90;;;;;;5032373;28;19928;-75
2022/06/13 04:44:26;;;;;;;;;;;13.60;99.90;;;;;;5043497;28;19928;-75
2022/06/13 04:46:53;;;;;;;;;;;13.60;99.90;;;;;;5033687;28;19917;-75
2022/06/13 04:49:24;;;;;;;;;;;13.70;99.90;;;;;;5049447;28;19917;-75
2022/06/13 04:51:50;;;;;;;;;;;13.70;99.90;;;;;;5015705;28;19924;-75
2022/06/13 04:54:30;;;;;;;;;;;13.70;99.90;;;;;;5033595;28;20372;-74
2022/06/13 04:56:56;;;;;;;;;;;13.80;99.90;;;;;;5049994;28;19953;-74
2022/06/13 04:59:22;;;;;;;;;;;13.70;99.90;;;;;;5023234;28;20183;-75
2022/06/13 05:01:48;;;;;;;;;;;13.80;99.90;;;;;;5029829;28;20389;-74
2022/06/13 05:04:16;;;;;;;;;;;13.80;99.90;;;;;;5033366;28;19916;-75
2022/06/13 05:06:50;;;;;;;;;;;13.90;99.90;;;;;;5015091;28;19917;-75
2022/06/13 05:09:26;;;;;;;;;;;13.80;99.90;;;;;;5032941;28;19917;-75
2022/06/13 05:12:04;;;;;;;;;;;13.90;99.90;;;;;;5014407;28;19920;-75
2022/06/13 05:14:32;;;;;;;;;;;14.00;99.90;;;;;;5023186;28;19925;-75
2022/06/13 05:17:06;;;;;;;;;;;14.10;99.90;;;;;;5039299;28;19920;-75
2022/06/13 05:19:46;;;;;;;;;;;14.10;99.90;;;;;;5048774;28;19917;-74
2022/06/13 05:22:32;;;;;;;;;;;14.30;99.90;;;;;;5045567;28;19917;-75
2022/06/13 05:25:10;;;;;;;;;;;14.30;99.90;;;;;;4994851;28;19959;-75
2022/06/13 05:27:36;;;;;;;;;;;14.30;99.90;;;;;;5032262;28;20381;-75
2022/06/13 05:30:01;;;;;;;;;;;14.30;99.90;;;;;;5033318;28;19940;-75
2022/06/13 05:32:27;;;;;;;;;;;14.30;99.90;;;;;;5031288;28;20412;-76
2022/06/13 05:34:53;;;;;;;;;;;14.30;99.90;;;;;;5016334;28;19917;-76
2022/06/13 05:37:19;;;;;;;;;;;14.30;99.90;;;;;;5048110;28;20357;-76
2022/06/13 05:39:45;;;;;;;;;;;14.30;99.90;;;;;;5048535;28;19927;-75
2022/06/13 05:42:13;;;;;;;;;;;14.10;99.90;;;;;;5029863;28;19925;-76
2022/06/13 05:44:39;;;;;;;;;;;14.00;99.90;;;;;;5032171;28;20339;-76
2022/06/13 05:47:07;;;;;;;;;;;14.00;99.90;;;;;;5031235;28;19917;-75
2022/06/13 05:49:33;;;;;;;;;;;13.90;99.90;;;;;;5032654;28;19925;-75
2022/06/13 05:51:58;;;;;;;;;;;13.80;99.90;;;;;;5014706;28;20281;-75
2022/06/13 05:54:24;;;;;;;;;;;13.80;99.90;;;;;;5016287;28;19917;-75
2022/06/13 05:56:49;;;;;;;;;;;13.90;99.90;;;;;;5043873;28;19924;-75
2022/06/13 05:59:15;;;;;;;;;;;14.00;99.90;;;;;;5027118;28;19917;-75
2022/06/13 06:01:40;;;;;;;;;;;13.90;99.90;;;;;;5029093;28;19917;-75
2022/06/13 06:04:06;;;;;;;;;;;14.00;99.90;;;;;;5046952;28;19924;-75
2022/06/13 06:06:32;;;;;;;;;;;14.10;99.90;;;;;;5031518;28;20003;-75
2022/06/13 06:08:58;;;;;;;;;;;14.30;99.90;;;;;;5047176;28;19924;-75
2022/06/13 06:11:24;;;;;;;;;;;14.40;99.90;;;;;;5013465;28;19920;-75
2022/06/13 06:13:50;;;;;;;;;;;14.60;99.90;;;;;;5020310;28;20400;-75
2022/06/13 06:16:17;;;;;;;;;;;14.80;99.90;;;;;;5014996;28;19921;-74
2022/06/13 06:18:43;;;;;;;;;;;14.90;99.90;;;;;;5030419;28;19917;-75
2022/06/13 06:21:09;;;;;;;;;;;15.10;99.90;;;;;;5021784;28;20266;-75
2022/06/13 06:23:35;;;;;;;;;;;15.30;99.90;;;;;;5017185;28;19921;-75
2022/06/13 06:26:02;;;;;;;;;;;15.40;99.90;;;;;;5012185;28;19924;-75
2022/06/13 06:28:28;;;;;;;;;;;15.40;99.90;;;;;;5022056;28;19968;-75
2022/06/13 06:30:55;;;;;;;;;;;15.50;99.90;;;;;;5031299;28;19921;-75
2022/06/13 06:33:21;;;;;;;;;;;15.60;99.90;;;;;;5014539;28;19921;-75
2022/06/13 06:35:48;;;;;;;;;;;15.60;99.90;;;;;;5027560;28;19931;-75
2022/06/13 06:38:14;;;;;;;;;;;15.70;99.90;;;;;;5030587;28;20333;-75
2022/06/13 06:40:39;;;;;;;;;;;15.80;99.90;;;;;;5013439;28;19921;-75
2022/06/13 06:43:05;;;;;;;;;;;15.80;99.90;;;;;;5045919;28;19925;-74
2022/06/13 06:45:31;;;;;;;;;;;15.70;99.90;;;;;;5030649;28;19917;-74
2022/06/13 06:47:56;;;;;;;;;;;15.60;99.90;;;;;;5046287;28;19924;-75
2022/06/13 06:50:24;;;;;;;;;;;15.40;99.90;;;;;;5030313;28;19923;-76
2022/06/13 06:52:49;;;;;;;;;;;15.40;99.90;;;;;;5014382;28;19921;-74
2022/06/13 07:00:45;;;;;;;;;;;15.10;99.90;;;;;;5030852;28;19965;-76
2022/06/13 07:03:11;;;;;;;;;;;15.10;99.90;;;;;;5022647;28;20011;-75
2022/06/13 07:05:37;;;;;;;;;;;15.00;99.90;;;;;;5026337;28;19928;-75
2022/06/13 07:08:02;;;;;;;;;;;15.00;99.90;;;;;;5013608;28;19923;-75
2022/06/13 07:10:28;;;;;;;;;;;14.90;99.90;;;;;;5026644;28;19917;-76
2022/06/13 07:12:53;;;;;;;;;;;15.10;99.90;;;;;;5030144;28;20656;-75
2022/06/13 07:15:19;;;;;;;;;;;15.00;99.90;;;;;;5043323;28;19924;-75
2022/06/13 07:17:44;;;;;;;;;;;15.10;99.90;;;;;;5035567;28;19924;-75
2022/06/13 07:20:10;;;;;;;;;;;15.10;99.90;;;;;;5031736;28;19921;-75
2022/06/13 07:22:36;;;;;;;;;;;15.40;99.90;;;;;;5034914;28;19917;-75
2022/06/13 07:25:01;;;;;;;;;;;15.60;99.90;;;;;;5051024;28;19924;-76
2022/06/13 07:27:27;;;;;;;;;;;15.70;99.90;;;;;;5015208;28;19970;-75
2022/06/13 07:29:52;;;;;;;;;;;15.70;99.90;;;;;;5016952;28;20339;-75
2022/06/13 07:32:19;;;;;;;;;;;16.10;99.90;;;;;;5034010;28;19928;-75
2022/06/13 07:34:46;;;;;;;;;;;16.10;99.90;;;;;;5034688;28;20293;-75
2022/06/13 07:37:13;;;;;;;;;;;16.30;99.90;;;;;;5035747;28;19917;-75
2022/06/13 07:39:38;;;;;;;;;;;16.30;99.90;;;;;;5034167;28;20008;-75
2022/06/13 07:42:04;;;;;;;;;;;16.30;99.90;;;;;;5033096;28;20071;-75
2022/06/13 07:44:32;;;;;;;;;;;16.50;99.90;;;;;;5018311;28;19917;-74
2022/06/13 07:46:57;;;;;;;;;;;16.50;99.90;;;;;;5018075;28;20014;-75
2022/06/13 07:49:23;;;;;;;;;;;16.50;99.90;;;;;;5030542;28;19972;-75
2022/06/13 07:51:48;;;;;;;;;;;16.70;99.90;;;;;;5033602;28;20312;-75
2022/06/13 07:54:14;;;;;;;;;;;16.80;99.90;;;;;;5033191;28;19929;-75
2022/06/13 07:56:41;;;;;;;;;;;16.80;99.90;;;;;;5034321;28;20011;-75
2022/06/13 07:59:07;;;;;;;;;;;17.00;99.90;;;;;;5034268;28;20289;-74
2022/06/13 08:01:32;;;;;;;;;;;16.90;99.90;;;;;;5017106;28;19925;-74
2022/06/13 08:03:58;;;;;;;;;;;17.00;99.90;;;;;;5016889;28;19917;-74
2022/06/13 08:06:24;;;;;;;;;;;16.90;99.90;;;;;;5032067;28;20370;-75
2022/06/13 08:08:50;;;;;;;;;;;16.60;99.90;;;;;;5018188;28;19925;-75
2022/06/13 08:11:17;;;;;;;;;;;16.60;99.90;;;;;;5034059;28;20016;-75
2022/06/13 08:13:43;;;;;;;;;;;16.50;99.90;;;;;;5032741;28;20332;-75
2022/06/13 08:16:09;;;;;;;;;;;16.60;99.90;;;;;;5033770;28;19921;-75
2022/06/13 08:18:35;;;;;;;;;;;16.30;99.90;;;;;;5029312;28;19917;-75
2022/06/13 08:21:00;;;;;;;;;;;16.30;99.90;;;;;;5032745;28;19917;-75
2022/06/13 08:23:26;;;;;;;;;;;16.20;99.90;;;;;;5034256;28;19924;-74
2022/06/13 08:25:51;;;;;;;;;;;16.20;99.90;;;;;;5049913;28;19959;-75
2022/06/13 08:28:17;;;;;;;;;;;16.30;99.90;;;;;;5033150;28;19921;-75
2022/06/13 08:30:51;;;;;;;;;;;16.30;99.90;;;;;;5033403;28;19925;-74
2022/06/13 08:33:18;;;;;;;;;;;16.30;99.90;;;;;;5014261;28;19929;-74
2022/06/13 08:35:43;;;;;;;;;;;16.40;99.90;;;;;;5027292;28;19924;-75
2022/06/13 08:38:09;;;;;;;;;;;16.30;99.90;;;;;;5016357;28;19916;-74
2022/06/13 08:40:45;;;;;;;;;;;16.40;99.90;;;;;;5016451;28;20408;-74
2022/06/13 08:43:25;;;;;;;;;;;16.70;99.90;;;;;;5017585;28;19924;-75
2022/06/13 08:45:55;;;;;;;;;;;16.90;99.90;;;;;;5032162;28;19925;-75
2022/06/13 08:48:27;;;;;;;;;;;16.90;99.90;;;;;;5034424;28;19960;-75
2022/06/13 08:51:01;;;;;;;;;;;16.90;99.90;;;;;;5030677;28;20442;-75
2022/06/13 08:53:32;;;;;;;;;;;16.60;99.90;;;;;;5033610;28;19932;-74
2022/06/13 08:55:59;;;;;;;;;;;16.70;99.90;;;;;;5050222;28;20401;-74
2022/06/13 08:58:43;;;;;;;;;;;16.50;99.90;;;;;;5033042;28;19960;-74
2022/06/13 09:01:12;;;;;;;;;;;16.50;99.90;;;;;;5041440;28;19923;-74
2022/06/13 09:03:56;;;;;;;;;;;16.60;99.90;;;;;;5017677;28;19966;-74
2022/06/13 09:06:23;;;;;;;;;;;16.80;99.90;;;;;;5013925;28;20366;-74
2022/06/13 09:08:59;;;;;;;;;;;17.10;99.90;;;;;;5013905;28;19917;-74
2022/06/13 09:11:47;;;;;;;;;;;17.20;99.90;;;;;;5033162;28;19917;-74
2022/06/13 09:14:20;;;;;;;;;;;17.30;99.90;;;;;;5033110;28;20019;-74
2022/06/13 09:17:11;;;;;;;;;;;17.60;99.90;;;;;;5033532;28;19916;-74
2022/06/13 09:19:44;;;;;;;;;;;17.50;99.90;;;;;;5031101;28;19921;-75
2022/06/13 09:22:14;;;;;;;;;;;17.40;99.90;;;;;;5016531;28;19917;-74
2022/06/13 09:24:44;;;;;;;;;;;17.20;99.90;;;;;;5050087;28;19966;-74
2022/06/13 09:27:13;;;;;;;;;;;17.10;99.90;;;;;;5033082;28;19924;-74
2022/06/13 09:29:44;;;;;;;;;;;17.20;99.90;;;;;;5049408;28;20683;-74
2022/06/13 09:32:14;;;;;;;;;;;17.30;99.90;;;;;;5031202;28;19924;-74
2022/06/13 09:34:42;;;;;;;;;;;17.50;99.90;;;;;;5032056;28;19956;-74
2022/06/13 09:37:09;;;;;;;;;;;17.40;99.90;;;;;;5032791;28;19917;-74
2022/06/13 09:39:35;;;;;;;;;;;17.00;99.90;;;;;;5033030;28;19971;-74
2022/06/13 09:42:28;;;;;;;;;;;16.90;99.90;;;;;;5032797;28;19921;-74
2022/06/13 09:45:09;;;;;;;;;;;16.70;99.90;;;;;;5016214;28;19924;-74
2022/06/13 09:47:44;;;;;;;;;;;16.50;99.90;;;;;;5030295;28;19948;-74
2022/06/13 09:50:16;;;;;;;;;;;16.60;99.90;;;;;;5032864;28;19924;-74
2022/06/13 09:52:53;;;;;;;;;;;16.70;99.90;;;;;;5031688;28;19925;-74
2022/06/13 09:55:37;;;;;;;;;;;16.80;99.90;;;;;;5032551;28;19920;-74
2022/06/13 09:58:12;;;;;;;;;;;16.90;99.90;;;;;;5032858;28;19917;-74
2022/06/13 10:00:46;;;;;;;;;;;17.10;99.90;;;;;;5032473;28;19917;-74
2022/06/13 10:03:38;;;;;;;;;;;17.40;99.90;;;;;;5032004;28;19956;-73
2022/06/13 10:06:13;;;;;;;;;;;17.70;99.90;;;;;;5028155;28;19924;-75
2022/06/13 10:08:48;;;;;;;;;;;17.70;99.90;;;;;;5030496;28;19955;-76
2022/06/13 10:11:17;;;;;;;;;;;17.40;99.90;;;;;;5030729;28;20385;-76
2022/06/13 10:13:58;;;;;;;;;;;16.90;99.90;;;;;;5030136;28;19991;-76
2022/06/13 10:16:39;;;;;;;;;;;16.80;99.90;;;;;;5022151;28;19920;-76
2022/06/13 10:19:16;;;;;;;;;;;16.80;99.90;;;;;;5026212;28;19924;-76
2022/06/13 10:21:44;;;;;;;;;;;16.80;99.90;;;;;;5029375;28;19917;-75
2022/06/13 10:24:29;;;;;;;;;;;17.10;99.90;;;;;;5014420;28;20365;-76
2022/06/13 10:26:54;;;;;;;;;;;17.40;99.90;;;;;;5029490;28;20007;-76
2022/06/13 10:29:19;;;;;;;;;;;17.30;99.90;;;;;;5046028;28;20059;-76
2022/06/13 10:31:58;;;;;;;;;;;17.30;99.90;;;;;;5031496;28;19917;-75
2022/06/13 10:34:27;;;;;;;;;;;17.30;99.90;;;;;;5029181;28;20296;-76
2022/06/13 10:36:54;;;;;;;;;;;17.50;99.90;;;;;;5033357;28;19917;-76
2022/06/13 10:39:21;;;;;;;;;;;17.60;99.90;;;;;;5036651;28;20059;-75
2022/06/13 10:41:48;;;;;;;;;;;17.60;99.90;;;;;;5012164;28;19918;-76
2022/06/13 10:44:16;;;;;;;;;;;17.40;99.90;;;;;;5049478;28;19916;-75
2022/06/13 10:46:42;;;;;;;;;;;17.20;99.90;;;;;;5038524;28;19916;-75
2022/06/13 10:49:16;;;;;;;;;;;17.20;99.90;;;;;;5038229;28;19921;-74
2022/06/13 10:51:42;;;;;;;;;;;17.30;99.90;;;;;;5046615;28;19925;-75
2022/06/13 10:54:11;;;;;;;;;;;17.50;99.90;;;;;;5028926;28;20400;-75
2022/06/13 10:56:45;;;;;;;;;;;17.50;99.90;;;;;;5030066;28;19974;-74
2022/06/13 10:59:37;;;;;;;;;;;17.40;99.90;;;;;;5047027;28;19917;-73
2022/06/13 11:02:04;;;;;;;;;;;17.20;99.90;;;;;;5026380;28;19917;-71
2022/06/13 11:04:31;;;;;;;;;;;17.20;99.90;;;;;;5029817;28;19995;-73
2022/06/13 11:06:59;;;;;;;;;;;17.10;99.90;;;;;;5029668;28;20358;-78
2022/06/13 11:09:42;;;;;;;;;;;17.10;99.90;;;;;;5030650;28;20392;-77
2022/06/13 11:12:27;;;;;;;;;;;17.30;99.90;;;;;;5028670;28;20293;-78
2022/06/13 11:23:12;;;;;;;;;;;17.00;99.90;;;;;;5031125;28;19964;-78
2022/06/13 11:25:38;;;;;;;;;;;16.90;99.90;;;;;;5015316;28;19964;-78
2022/06/13 11:28:09;;;;;;;;;;;16.80;99.90;;;;;;5045375;28;20361;-78
2022/06/13 11:30:41;;;;;;;;;;;16.90;99.90;;;;;;5014671;28;20289;-78
2022/06/13 11:33:14;;;;;;;;;;;16.80;99.90;;;;;;5040277;28;19929;-78
2022/06/13 11:35:41;;;;;;;;;;;16.90;99.90;;;;;;5031179;28;19917;-78
2022/06/13 11:38:25;;;;;;;;;;;17.10;99.90;;;;;;5030030;28;19917;-78
2022/06/13 11:41:03;;;;;;;;;;;17.20;99.90;;;;;;5017943;28;19921;-78
2022/06/13 11:43:52;;;;;;;;;;;17.60;99.90;;;;;;5036928;28;19924;-77
2022/06/13 11:46:27;;;;;;;;;;;17.70;99.90;;;;;;5030065;28;19921;-77
2022/06/13 11:48:53;;;;;;;;;;;17.60;99.90;;;;;;5013200;28;19983;-76
2022/06/13 11:51:23;;;;;;;;;;;17.60;99.90;;;;;;5046911;28;19917;-76
2022/06/13 11:53:50;;;;;;;;;;;17.60;99.90;;;;;;5030504;28;19956;-77
2022/06/13 11:56:23;;;;;;;;;;;17.70;99.90;;;;;;5033834;28;19923;-78
2022/06/13 11:58:50;;;;;;;;;;;17.70;99.90;;;;;;5034535;28;20008;-77
2022/06/13 12:01:19;;;;;;;;;;;18.00;99.90;;;;;;5049936;28;19917;-78
2022/06/13 12:03:58;;;;;;;;;;;18.00;99.90;;;;;;5033995;28;20011;-77
2022/06/13 12:06:24;;;;;;;;;;;17.80;99.90;;;;;;5015105;28;19967;-78
2022/06/13 12:08:58;;;;;;;;;;;17.70;99.90;;;;;;5033806;28;20259;-79
2022/06/13 12:11:24;;;;;;;;;;;17.60;99.90;;;;;;5048553;28;20385;-78
2022/06/13 12:13:50;;;;;;;;;;;17.40;99.90;;;;;;5051051;28;19928;-78
2022/06/13 12:16:30;;;;;;;;;;;17.30;99.90;;;;;;5039662;28;19917;-78
2022/06/13 12:18:58;;;;;;;;;;;17.30;99.90;;;;;;5034573;28;19917;-78
2022/06/13 12:21:50;;;;;;;;;;;17.30;99.90;;;;;;5035109;28;20361;-78
2022/06/13 12:24:19;;;;;;;;;;;17.20;99.90;;;;;;5030997;28;19924;-78
2022/06/13 12:26:49;;;;;;;;;;;17.10;99.90;;;;;;5034729;28;19985;-79
2022/06/13 12:29:27;;;;;;;;;;;17.00;99.90;;;;;;5034471;28;19917;-79
2022/06/13 12:31:56;;;;;;;;;;;16.90;99.90;;;;;;5046094;28;20369;-78
2022/06/13 12:34:28;;;;;;;;;;;17.00;99.90;;;;;;5040332;28;19929;-78
2022/06/13 12:37:00;;;;;;;;;;;17.10;99.90;;;;;;5028924;28;19987;-78
2022/06/13 12:39:35;;;;;;;;;;;17.30;99.90;;;;;;5046522;28;19921;-78
2022/06/13 12:42:00;;;;;;;;;;;17.30;99.90;;;;;;5029985;28;19972;-78
2022/06/13 12:44:41;;;;;;;;;;;17.30;99.90;;;;;;5013883;28;20657;-78
2022/06/13 12:47:09;;;;;;;;;;;17.30;99.90;;;;;;5028034;28;19979;-79
2022/06/13 12:49:35;;;;;;;;;;;17.10;99.90;;;;;;5033901;28;19924;-79
2022/06/13 12:52:07;;;;;;;;;;;17.10;99.90;;;;;;5048043;28;19916;-79
2022/06/13 12:54:46;;;;;;;;;;;16.90;99.90;;;;;;5033831;28;19983;-78
2022/06/13 12:57:24;;;;;;;;;;;16.90;99.90;;;;;;5034202;28;19974;-79
2022/06/13 12:59:49;;;;;;;;;;;16.80;99.90;;;;;;5033917;28;19971;-79
2022/06/13 13:02:34;;;;;;;;;;;16.70;99.90;;;;;;5029007;28;19957;-78
2022/06/13 13:05:02;;;;;;;;;;;16.90;99.90;;;;;;5037117;28;19956;-79
2022/06/13 13:07:36;;;;;;;;;;;17.00;99.90;;;;;;5031658;28;19925;-79
2022/06/13 13:10:31;;;;;;;;;;;17.10;99.90;;;;;;5048518;28;19923;-79
2022/06/13 13:13:15;;;;;;;;;;;17.10;99.90;;;;;;4980532;28;19926;-78
2022/06/13 13:15:47;;;;;;;;;;;16.90;99.90;;;;;;5026561;28;20118;-79
2022/06/13 13:18:19;;;;;;;;;;;16.80;99.90;;;;;;5049852;28;19921;-79
2022/06/13 13:20:48;;;;;;;;;;;16.80;99.90;;;;;;5032366;28;19924;-79
2022/06/13 13:23:39;;;;;;;;;;;16.70;99.90;;;;;;5013673;28;19931;-79
2022/06/13 13:26:25;;;;;;;;;;;16.70;99.90;;;;;;5031578;28;19916;-79
2022/06/13 13:29:09;;;;;;;;;;;16.60;99.90;;;;;;5013735;28;19925;-78
2022/06/13 13:31:37;;;;;;;;;;;16.60;99.90;;;;;;5031506;28;19924;-78
2022/06/13 13:34:22;;;;;;;;;;;16.60;99.90;;;;;;5029605;28;19943;-79
2022/06/13 13:37:01;;;;;;;;;;;16.70;99.90;;;;;;5023119;28;20012;-79
2022/06/13 13:39:37;;;;;;;;;;;16.80;99.90;;;;;;5029424;28;19921;-78
2022/06/13 13:42:07;;;;;;;;;;;16.70;99.90;;;;;;5032079;28;19960;-79
2022/06/13 13:44:41;;;;;;;;;;;16.70;99.90;;;;;;5032589;28;19924;-79
2022/06/13 13:47:25;;;;;;;;;;;16.80;99.90;;;;;;5029670;28;20027;-79
2022/06/13 13:49:53;;;;;;;;;;;16.80;99.90;;;;;;5049354;28;19970;-79
2022/06/13 13:52:22;;;;;;;;;;;16.80;99.90;;;;;;5046987;28;20488;-79
2022/06/13 13:54:50;;;;;;;;;;;17.00;99.90;;;;;;5031678;28;19924;-79
2022/06/13 13:57:22;;;;;;;;;;;17.10;99.90;;;;;;5030711;28;19917;-79
2022/06/13 13:59:49;;;;;;;;;;;17.10;99.90;;;;;;5043317;28;19924;-79
2022/06/13 14:02:34;;;;;;;;;;;17.20;99.90;;;;;;5048095;28;19917;-79
2022/06/13 14:05:10;;;;;;;;;;;17.10;99.90;;;;;;5031666;28;20369;-78
2022/06/13 14:07:55;;;;;;;;;;;17.20;99.90;;;;;;5030585;28;19924;-79
2022/06/13 14:10:22;;;;;;;;;;;17.30;99.90;;;;;;5047529;28;19917;-78
2022/06/13 14:13:06;;;;;;;;;;;17.20;99.90;;;;;;5046745;28;19925;-79
2022/06/13 14:15:31;;;;;;;;;;;17.20;99.90;;;;;;5030185;28;19972;-78
2022/06/13 14:17:57;;;;;;;;;;;17.20;99.90;;;;;;5032070;28;19956;-79
2022/06/13 14:20:27;;;;;;;;;;;17.40;99.90;;;;;;5015112;28;19924;-78
2022/06/13 14:22:57;;;;;;;;;;;17.40;99.90;;;;;;5047885;28;19924;-79
2022/06/13 14:25:33;;;;;;;;;;;17.40;99.90;;;;;;5014995;28;19917;-79
2022/06/13 14:28:05;;;;;;;;;;;17.70;99.90;;;;;;5048228;28;19923;-79
2022/06/13 14:35:11;;;;;;;;;;;17.50;99.90;;;;;;5030202;28;19921;-79
2022/06/13 14:36:01;;;;;;;;;;;17.40;99.90;;;;;;5026501;28;19924;-79
2022/06/13 14:38:32;;;;;;;;;;;17.20;99.90;;;;;;5014218;28;20031;-79
2022/06/13 14:41:00;;;;;;;;;;;17.30;99.90;;;;;;5031670;28;19927;-79
2022/06/13 14:43:37;;;;;;;;;;;17.40;99.90;;;;;;5031713;28;19917;-79
2022/06/13 14:46:35;;;;;;;;;;;17.40;99.90;;;;;;5031179;28;19916;-79